MHLM/SAP METAR and TAF weather

Enter ICAO airport designator
Station Type Date Time Source
MHLM METAR 2018/12/17 02:00 UTC NOAA

MHLM 170200Z 00000KT 9999 SCT024 BKN080 20/18 Q1022 A3018 NOSIG


Station Type Date Time Source
MHLM Decoded METAR 2018/12/17 02:00 UTC NOAA

La Mesa San Pedro Sula , Honduras (MHLM) 15-27N 087-56W 31M
Dec 16, 2018 - 09:00 PM EST / 2018.12.17 0200 UTC
Wind: Calm:0
Visibility: greater than 7 mile(s):0
Sky conditions: mostly cloudy
Temperature: 68 F (20 C)
Dew Point: 64 F (18 C)
Relative Humidity: 88%
Pressure (altimeter): 30.18 in. Hg (1022 hPa)
ob: MHLM 170200Z 00000KT 9999 SCT024 BKN080 20/18 Q1022 A3018 NOSIG
cycle: 2

Station Type Date Time Source
MHLM TAF 2018/12/16 18:42 UTC NOAA

TAF MHLM 161625Z 1618/1718 36008KT 6000 RA SCT020 BKN080 TX24/1620Z TN20/1712Z
BECMG 1701/1703 00000KT 9999 NSW
BECMG 1708/1710 23006KT 8000 VCSH PROB30 1716/1718 35008KT 9999 NSW


Example: see airport list